SBBE/BEL METAR and TAF weather

Enter ICAO airport designator
Station Type Date Time Source
SBBE METAR 2020/12/06 01:00 UTC NOAA

SBBE 060100Z 07007KT 9999 FEW030 27/24 Q1012


Station Type Date Time Source
SBBE Decoded METAR 2020/12/06 01:00 UTC NOAA

Belem Aeroporto , Brazil (SBBE) 01-23S 048-29W 16M
Dec 05, 2020 - 08:00 PM EST / 2020.12.06 0100 UTC
Wind: from the ENE (070 degrees) at 8 MPH (7 KT):0
Visibility: greater than 7 mile(s):0
Sky conditions: mostly clear
Temperature: 80 F (27 C)
Dew Point: 75 F (24 C)
Relative Humidity: 83%
Pressure (altimeter): 29.88 in. Hg (1012 hPa)
ob: SBBE 060100Z 07007KT 9999 FEW030 27/24 Q1012
cycle: 1

Station Type Date Time Source
SBBE TAF 2020/12/06 00:00 UTC NOAA

TAF SBBE 052100Z 0600/0624 10010KT 8000 TS BKN017 FEW030CB TN24/0609Z TX32/0617Z
BECMG 0601/0603 07010KT NSW SCT017
BECMG 0613/0615 BKN030 FEW040TCU
BECMG 0616/0618 35015KT 8000 TS BKN025 FEW035CB
TEMPO 0618/0621 07010KT 5000 TSRA BKN012 FEW025CB
BECMG 0621/0623 02010KT NSW SCT017 FEW025TCU
RMK PGS

Example: see airport list